sensor_id;sensor_type;location;lat;lon;timestamp;temperature;humidity
27266;DHT22;14766;51.380;13.762;2023-06-22T00:01:22;26.50;51.50
27266;DHT22;14766;51.380;13.762;2023-06-22T00:03:50;26.40;51.60
27266;DHT22;14766;51.380;13.762;2023-06-22T00:06:17;26.40;51.60
27266;DHT22;14766;51.380;13.762;2023-06-22T00:08:44;26.40;51.70
27266;DHT22;14766;51.380;13.762;2023-06-22T00:11:12;26.30;51.70
27266;DHT22;14766;51.380;13.762;2023-06-22T00:13:39;26.30;51.80
27266;DHT22;14766;51.380;13.762;2023-06-22T00:16:06;26.30;51.90
27266;DHT22;14766;51.380;13.762;2023-06-22T00:18:33;26.20;52.00
27266;DHT22;14766;51.380;13.762;2023-06-22T00:21:00;26.20;52.00
27266;DHT22;14766;51.380;13.762;2023-06-22T00:23:27;26.20;52.00
27266;DHT22;14766;51.380;13.762;2023-06-22T00:25:54;26.20;52.00
27266;DHT22;14766;51.380;13.762;2023-06-22T00:28:22;26.20;52.10
27266;DHT22;14766;51.380;13.762;2023-06-22T00:30:49;26.10;52.10
27266;DHT22;14766;51.380;13.762;2023-06-22T00:33:18;26.10;52.20
27266;DHT22;14766;51.380;13.762;2023-06-22T00:35:45;26.10;52.20
27266;DHT22;14766;51.380;13.762;2023-06-22T00:38:12;26.00;52.20
27266;DHT22;14766;51.380;13.762;2023-06-22T00:40:41;26.00;52.40
27266;DHT22;14766;51.380;13.762;2023-06-22T00:43:08;26.00;52.50
27266;DHT22;14766;51.380;13.762;2023-06-22T00:45:35;26.00;53.20
27266;DHT22;14766;51.380;13.762;2023-06-22T00:48:03;25.90;52.30
27266;DHT22;14766;51.380;13.762;2023-06-22T00:50:32;25.90;52.50
27266;DHT22;14766;51.380;13.762;2023-06-22T00:53:10;25.80;52.60
27266;DHT22;14766;51.380;13.762;2023-06-22T00:55:42;25.80;52.70
27266;DHT22;14766;51.380;13.762;2023-06-22T00:58:19;25.80;52.70
27266;DHT22;14766;51.380;13.762;2023-06-22T01:00:49;25.70;52.70
27266;DHT22;14766;51.380;13.762;2023-06-22T01:03:16;25.70;52.90
27266;DHT22;14766;51.380;13.762;2023-06-22T01:05:44;25.60;52.90
27266;DHT22;14766;51.380;13.762;2023-06-22T01:08:35;25.60;53.00
27266;DHT22;14766;51.380;13.762;2023-06-22T01:11:25;25.60;53.20
27266;DHT22;14766;51.380;13.762;2023-06-22T01:17:01;25.60;53.40
27266;DHT22;14766;51.380;13.762;2023-06-22T01:22:19;25.50;53.40
27266;DHT22;14766;51.380;13.762;2023-06-22T01:30:16;25.40;53.50
27266;DHT22;14766;51.380;13.762;2023-06-22T01:32:44;25.40;53.40
27266;DHT22;14766;51.380;13.762;2023-06-22T01:35:12;25.40;53.40
27266;DHT22;14766;51.380;13.762;2023-06-22T01:37:39;25.40;53.40
27266;DHT22;14766;51.380;13.762;2023-06-22T01:40:08;25.30;53.50
27266;DHT22;14766;51.380;13.762;2023-06-22T01:42:36;25.30;53.50
27266;DHT22;14766;51.380;13.762;2023-06-22T01:45:07;25.20;53.30
27266;DHT22;14766;51.380;13.762;2023-06-22T01:47:37;25.20;53.30
27266;DHT22;14766;51.380;13.762;2023-06-22T01:50:06;25.20;53.30
27266;DHT22;14766;51.380;13.762;2023-06-22T01:52:33;25.20;53.50
27266;DHT22;14766;51.380;13.762;2023-06-22T01:55:01;25.10;53.30
27266;DHT22;14766;51.380;13.762;2023-06-22T01:57:28;25.10;53.40
27266;DHT22;14766;51.380;13.762;2023-06-22T02:00:02;25.00;53.40
27266;DHT22;14766;51.380;13.762;2023-06-22T02:02:59;25.00;53.50
27266;DHT22;14766;51.380;13.762;2023-06-22T02:05:33;25.00;53.50
27266;DHT22;14766;51.380;13.762;2023-06-22T02:08:15;25.00;53.50
27266;DHT22;14766;51.380;13.762;2023-06-22T02:10:45;25.00;53.70
27266;DHT22;14766;51.380;13.762;2023-06-22T02:13:14;25.00;53.70
27266;DHT22;14766;51.380;13.762;2023-06-22T02:15:42;24.90;53.70
27266;DHT22;14766;51.380;13.762;2023-06-22T02:18:12;24.90;53.70
27266;DHT22;14766;51.380;13.762;2023-06-22T02:20:39;24.90;53.80
27266;DHT22;14766;51.380;13.762;2023-06-22T02:23:08;24.90;53.90
27266;DHT22;14766;51.380;13.762;2023-06-22T02:25:36;24.90;53.80
27266;DHT22;14766;51.380;13.762;2023-06-22T02:28:05;24.80;53.80
27266;DHT22;14766;51.380;13.762;2023-06-22T02:30:32;24.80;53.80
27266;DHT22;14766;51.380;13.762;2023-06-22T02:32:59;24.80;53.80
27266;DHT22;14766;51.380;13.762;2023-06-22T02:35:28;24.80;53.80
27266;DHT22;14766;51.380;13.762;2023-06-22T02:37:59;24.80;54.30
27266;DHT22;14766;51.380;13.762;2023-06-22T02:40:28;24.80;53.80
27266;DHT22;14766;51.380;13.762;2023-06-22T02:42:58;24.80;53.90
27266;DHT22;14766;51.380;13.762;2023-06-22T02:45:29;24.70;53.90
27266;DHT22;14766;51.380;13.762;2023-06-22T02:47:56;24.70;54.00
27266;DHT22;14766;51.380;13.762;2023-06-22T02:50:24;24.70;54.00
27266;DHT22;14766;51.380;13.762;2023-06-22T02:52:52;24.60;54.10
27266;DHT22;14766;51.380;13.762;2023-06-22T02:55:20;24.60;54.10
27266;DHT22;14766;51.380;13.762;2023-06-22T02:57:56;24.60;54.20
27266;DHT22;14766;51.380;13.762;2023-06-22T03:00:29;24.60;54.20
27266;DHT22;14766;51.380;13.762;2023-06-22T03:02:58;24.60;54.70
27266;DHT22;14766;51.380;13.762;2023-06-22T03:05:26;24.60;54.20
27266;DHT22;14766;51.380;13.762;2023-06-22T03:07:57;24.60;54.30
27266;DHT22;14766;51.380;13.762;2023-06-22T03:10:28;24.50;54.40
27266;DHT22;14766;51.380;13.762;2023-06-22T03:12:56;24.50;54.50
27266;DHT22;14766;51.380;13.762;2023-06-22T03:15:23;24.50;54.50
27266;DHT22;14766;51.380;13.762;2023-06-22T03:17:51;24.50;54.70
27266;DHT22;14766;51.380;13.762;2023-06-22T03:20:18;24.40;54.60
27266;DHT22;14766;51.380;13.762;2023-06-22T03:22:46;24.40;54.70
27266;DHT22;14766;51.380;13.762;2023-06-22T03:25:13;24.40;54.70
27266;DHT22;14766;51.380;13.762;2023-06-22T03:27:43;24.40;54.80
27266;DHT22;14766;51.380;13.762;2023-06-22T03:30:12;24.40;54.80
27266;DHT22;14766;51.380;13.762;2023-06-22T03:32:39;24.40;54.70
27266;DHT22;14766;51.380;13.762;2023-06-22T03:35:07;24.40;54.70
27266;DHT22;14766;51.380;13.762;2023-06-22T03:37:36;24.40;54.80
27266;DHT22;14766;51.380;13.762;2023-06-22T03:40:05;24.40;54.90
27266;DHT22;14766;51.380;13.762;2023-06-22T03:42:35;24.40;54.90
27266;DHT22;14766;51.380;13.762;2023-06-22T03:45:03;24.40;55.10
27266;DHT22;14766;51.380;13.762;2023-06-22T03:47:31;24.40;55.20
27266;DHT22;14766;51.380;13.762;2023-06-22T03:49:58;24.40;55.40
27266;DHT22;14766;51.380;13.762;2023-06-22T03:52:26;24.30;55.30
27266;DHT22;14766;51.380;13.762;2023-06-22T03:54:56;24.30;55.40
27266;DHT22;14766;51.380;13.762;2023-06-22T03:57:24;24.40;55.60
27266;DHT22;14766;51.380;13.762;2023-06-22T03:59:51;24.40;55.60
27266;DHT22;14766;51.380;13.762;2023-06-22T04:02:19;24.30;55.50
27266;DHT22;14766;51.380;13.762;2023-06-22T04:04:47;24.40;55.60
27266;DHT22;14766;51.380;13.762;2023-06-22T04:07:15;24.30;55.60
27266;DHT22;14766;51.380;13.762;2023-06-22T04:09:42;24.30;55.60
27266;DHT22;14766;51.380;13.762;2023-06-22T04:12:09;24.40;55.60
27266;DHT22;14766;51.380;13.762;2023-06-22T04:14:36;24.40;55.70
27266;DHT22;14766;51.380;13.762;2023-06-22T04:17:03;24.40;55.70
27266;DHT22;14766;51.380;13.762;2023-06-22T04:19:31;24.50;55.70
27266;DHT22;14766;51.380;13.762;2023-06-22T04:21:58;24.50;55.70
27266;DHT22;14766;51.380;13.762;2023-06-22T04:24:25;24.60;55.60
27266;DHT22;14766;51.380;13.762;2023-06-22T04:26:52;24.60;55.50
27266;DHT22;14766;51.380;13.762;2023-06-22T04:29:22;24.60;55.50
27266;DHT22;14766;51.380;13.762;2023-06-22T04:31:59;24.70;55.50
27266;DHT22;14766;51.380;13.762;2023-06-22T04:34:32;24.70;55.50
27266;DHT22;14766;51.380;13.762;2023-06-22T04:36:59;24.80;55.50
27266;DHT22;14766;51.380;13.762;2023-06-22T04:39:27;24.80;55.60
27266;DHT22;14766;51.380;13.762;2023-06-22T04:41:55;24.80;55.60
27266;DHT22;14766;51.380;13.762;2023-06-22T04:44:28;24.80;55.50
27266;DHT22;14766;51.380;13.762;2023-06-22T04:47:00;24.90;55.50
27266;DHT22;14766;51.380;13.762;2023-06-22T04:49:29;24.90;55.40
27266;DHT22;14766;51.380;13.762;2023-06-22T04:52:01;25.00;55.40
27266;DHT22;14766;51.380;13.762;2023-06-22T04:54:29;25.00;55.40
27266;DHT22;14766;51.380;13.762;2023-06-22T04:56:56;25.10;55.30
27266;DHT22;14766;51.380;13.762;2023-06-22T04:59:24;25.10;55.30
27266;DHT22;14766;51.380;13.762;2023-06-22T05:01:59;25.10;55.30
27266;DHT22;14766;51.380;13.762;2023-06-22T05:04:28;25.20;55.50
27266;DHT22;14766;51.380;13.762;2023-06-22T05:07:00;25.30;55.40
27266;DHT22;14766;51.380;13.762;2023-06-22T05:09:31;25.30;55.40
27266;DHT22;14766;51.380;13.762;2023-06-22T05:12:01;25.40;55.40
27266;DHT22;14766;51.380;13.762;2023-06-22T05:14:29;25.50;55.30
27266;DHT22;14766;51.380;13.762;2023-06-22T05:16:57;25.50;55.30
27266;DHT22;14766;51.380;13.762;2023-06-22T05:19:31;25.60;55.30
27266;DHT22;14766;51.380;13.762;2023-06-22T05:22:01;25.60;55.20
27266;DHT22;14766;51.380;13.762;2023-06-22T05:24:28;25.70;55.10
27266;DHT22;14766;51.380;13.762;2023-06-22T05:26:55;25.80;55.10
27266;DHT22;14766;51.380;13.762;2023-06-22T05:29:23;25.90;55.80
27266;DHT22;14766;51.380;13.762;2023-06-22T05:31:51;25.90;55.00
27266;DHT22;14766;51.380;13.762;2023-06-22T05:34:19;26.00;54.90
27266;DHT22;14766;51.380;13.762;2023-06-22T05:36:46;26.10;54.90
27266;DHT22;14766;51.380;13.762;2023-06-22T05:39:14;26.20;54.90
27266;DHT22;14766;51.380;13.762;2023-06-22T05:41:42;26.30;54.90
27266;DHT22;14766;51.380;13.762;2023-06-22T05:44:13;26.40;54.90
27266;DHT22;14766;51.380;13.762;2023-06-22T05:46:42;26.50;55.00
27266;DHT22;14766;51.380;13.762;2023-06-22T05:49:13;26.60;55.00
27266;DHT22;14766;51.380;13.762;2023-06-22T05:51:41;26.70;55.10
27266;DHT22;14766;51.380;13.762;2023-06-22T05:54:08;26.80;54.90
27266;DHT22;14766;51.380;13.762;2023-06-22T05:56:35;26.80;54.80
27266;DHT22;14766;51.380;13.762;2023-06-22T05:59:04;26.90;54.80
27266;DHT22;14766;51.380;13.762;2023-06-22T06:01:31;27.00;54.00
27266;DHT22;14766;51.380;13.762;2023-06-22T06:04:04;27.10;54.70
27266;DHT22;14766;51.380;13.762;2023-06-22T06:06:32;27.20;54.40
27266;DHT22;14766;51.380;13.762;2023-06-22T06:08:59;27.30;54.40
27266;DHT22;14766;51.380;13.762;2023-06-22T06:11:27;27.40;54.50
27266;DHT22;14766;51.380;13.762;2023-06-22T06:13:54;27.50;54.40
27266;DHT22;14766;51.380;13.762;2023-06-22T06:16:22;27.60;54.40
27266;DHT22;14766;51.380;13.762;2023-06-22T06:18:51;27.70;54.40
27266;DHT22;14766;51.380;13.762;2023-06-22T06:21:20;27.80;54.10
27266;DHT22;14766;51.380;13.762;2023-06-22T06:23:47;27.90;54.20
27266;DHT22;14766;51.380;13.762;2023-06-22T06:26:14;28.00;54.00
27266;DHT22;14766;51.380;13.762;2023-06-22T06:28:43;28.10;53.70
27266;DHT22;14766;51.380;13.762;2023-06-22T06:31:10;28.20;53.30
27266;DHT22;14766;51.380;13.762;2023-06-22T06:33:39;28.30;52.80
27266;DHT22;14766;51.380;13.762;2023-06-22T06:36:07;28.40;53.00
27266;DHT22;14766;51.380;13.762;2023-06-22T06:38:36;28.40;52.20
27266;DHT22;14766;51.380;13.762;2023-06-22T06:41:03;28.50;52.10
27266;DHT22;14766;51.380;13.762;2023-06-22T06:43:30;28.60;51.90
27266;DHT22;14766;51.380;13.762;2023-06-22T06:45:58;28.60;51.70
27266;DHT22;14766;51.380;13.762;2023-06-22T06:48:26;28.70;51.60
27266;DHT22;14766;51.380;13.762;2023-06-22T06:50:53;28.80;52.30
27266;DHT22;14766;51.380;13.762;2023-06-22T06:53:22;28.90;51.80
27266;DHT22;14766;51.380;13.762;2023-06-22T06:55:50;29.00;51.70
27266;DHT22;14766;51.380;13.762;2023-06-22T06:58:17;29.10;51.70
27266;DHT22;14766;51.380;13.762;2023-06-22T07:00:45;29.20;51.40
27266;DHT22;14766;51.380;13.762;2023-06-22T07:03:12;29.30;51.00
27266;DHT22;14766;51.380;13.762;2023-06-22T07:05:39;29.40;51.20
27266;DHT22;14766;51.380;13.762;2023-06-22T07:08:06;29.50;50.80
27266;DHT22;14766;51.380;13.762;2023-06-22T07:10:33;29.70;50.20
27266;DHT22;14766;51.380;13.762;2023-06-22T07:13:00;29.80;50.10
27266;DHT22;14766;51.380;13.762;2023-06-22T07:15:28;29.90;49.80
27266;DHT22;14766;51.380;13.762;2023-06-22T07:17:55;30.00;49.10
27266;DHT22;14766;51.380;13.762;2023-06-22T07:20:22;30.10;49.60
27266;DHT22;14766;51.380;13.762;2023-06-22T07:22:51;30.20;49.50
27266;DHT22;14766;51.380;13.762;2023-06-22T07:25:20;30.30;49.10
27266;DHT22;14766;51.380;13.762;2023-06-22T07:27:59;30.50;48.70
27266;DHT22;14766;51.380;13.762;2023-06-22T07:30:30;30.60;48.40
27266;DHT22;14766;51.380;13.762;2023-06-22T07:32:59;30.70;48.50
27266;DHT22;14766;51.380;13.762;2023-06-22T07:35:30;30.80;48.30
27266;DHT22;14766;51.380;13.762;2023-06-22T07:37:57;30.90;48.20
27266;DHT22;14766;51.380;13.762;2023-06-22T07:40:26;31.00;48.10
27266;DHT22;14766;51.380;13.762;2023-06-22T07:42:53;31.10;48.20
27266;DHT22;14766;51.380;13.762;2023-06-22T07:45:21;31.20;47.90
27266;DHT22;14766;51.380;13.762;2023-06-22T07:47:48;31.30;47.80
27266;DHT22;14766;51.380;13.762;2023-06-22T07:50:15;31.40;47.80
27266;DHT22;14766;51.380;13.762;2023-06-22T07:52:42;31.50;47.70
27266;DHT22;14766;51.380;13.762;2023-06-22T07:55:09;31.60;47.20
27266;DHT22;14766;51.380;13.762;2023-06-22T07:57:36;31.70;47.10
27266;DHT22;14766;51.380;13.762;2023-06-22T08:00:05;31.90;47.00
27266;DHT22;14766;51.380;13.762;2023-06-22T08:02:44;32.00;46.60
27266;DHT22;14766;51.380;13.762;2023-06-22T08:05:14;32.10;45.90
27266;DHT22;14766;51.380;13.762;2023-06-22T08:07:49;32.30;46.10
27266;DHT22;14766;51.380;13.762;2023-06-22T08:10:19;32.40;46.20
27266;DHT22;14766;51.380;13.762;2023-06-22T08:12:46;32.50;45.80
27266;DHT22;14766;51.380;13.762;2023-06-22T08:15:13;32.70;45.80
27266;DHT22;14766;51.380;13.762;2023-06-22T08:17:40;32.80;45.00
27266;DHT22;14766;51.380;13.762;2023-06-22T08:20:09;32.90;44.50
27266;DHT22;14766;51.380;13.762;2023-06-22T08:22:39;32.90;44.00
27266;DHT22;14766;51.380;13.762;2023-06-22T08:25:07;32.90;43.60
27266;DHT22;14766;51.380;13.762;2023-06-22T08:27:35;32.90;43.80
27266;DHT22;14766;51.380;13.762;2023-06-22T08:30:02;32.80;43.70
27266;DHT22;14766;51.380;13.762;2023-06-22T08:32:30;32.70;43.90
27266;DHT22;14766;51.380;13.762;2023-06-22T08:34:59;32.70;44.20
27266;DHT22;14766;51.380;13.762;2023-06-22T08:37:28;32.60;44.30
27266;DHT22;14766;51.380;13.762;2023-06-22T08:40:05;32.60;44.40
27266;DHT22;14766;51.380;13.762;2023-06-22T08:42:32;32.70;44.60
27266;DHT22;14766;51.380;13.762;2023-06-22T08:44:59;32.80;44.20
27266;DHT22;14766;51.380;13.762;2023-06-22T08:47:30;32.90;44.30
27266;DHT22;14766;51.380;13.762;2023-06-22T08:49:57;33.00;43.20
27266;DHT22;14766;51.380;13.762;2023-06-22T08:52:26;33.00;42.50
27266;DHT22;14766;51.380;13.762;2023-06-22T08:54:55;33.20;42.80
27266;DHT22;14766;51.380;13.762;2023-06-22T08:57:22;33.30;42.40
27266;DHT22;14766;51.380;13.762;2023-06-22T08:59:49;33.40;42.70
27266;DHT22;14766;51.380;13.762;2023-06-22T09:02:19;33.50;42.20
27266;DHT22;14766;51.380;13.762;2023-06-22T09:04:46;33.60;40.90
27266;DHT22;14766;51.380;13.762;2023-06-22T09:07:14;33.60;40.10
27266;DHT22;14766;51.380;13.762;2023-06-22T09:09:41;33.60;40.00
27266;DHT22;14766;51.380;13.762;2023-06-22T09:12:08;33.50;40.00
27266;DHT22;14766;51.380;13.762;2023-06-22T09:14:35;33.50;40.10
27266;DHT22;14766;51.380;13.762;2023-06-22T09:17:03;33.40;38.90
27266;DHT22;14766;51.380;13.762;2023-06-22T09:19:30;33.50;39.50
27266;DHT22;14766;51.380;13.762;2023-06-22T09:21:57;33.60;40.10
27266;DHT22;14766;51.380;13.762;2023-06-22T09:24:24;33.70;40.40
27266;DHT22;14766;51.380;13.762;2023-06-22T09:26:51;33.80;40.30
27266;DHT22;14766;51.380;13.762;2023-06-22T09:29:19;33.90;40.00
27266;DHT22;14766;51.380;13.762;2023-06-22T09:31:46;34.10;40.00
27266;DHT22;14766;51.380;13.762;2023-06-22T09:34:13;34.20;39.90
27266;DHT22;14766;51.380;13.762;2023-06-22T09:36:41;34.30;39.20
27266;DHT22;14766;51.380;13.762;2023-06-22T09:39:09;34.40;38.90
27266;DHT22;14766;51.380;13.762;2023-06-22T09:41:37;34.50;38.50
27266;DHT22;14766;51.380;13.762;2023-06-22T09:44:05;34.60;38.50
27266;DHT22;14766;51.380;13.762;2023-06-22T09:46:33;34.70;38.20
27266;DHT22;14766;51.380;13.762;2023-06-22T09:49:00;34.70;38.30
27266;DHT22;14766;51.380;13.762;2023-06-22T09:51:27;34.70;38.40
27266;DHT22;14766;51.380;13.762;2023-06-22T09:53:55;34.80;37.70
27266;DHT22;14766;51.380;13.762;2023-06-22T09:56:22;34.80;37.50
27266;DHT22;14766;51.380;13.762;2023-06-22T09:58:49;34.80;37.50
27266;DHT22;14766;51.380;13.762;2023-06-22T10:01:22;34.80;37.30
27266;DHT22;14766;51.380;13.762;2023-06-22T10:03:52;34.80;37.40
27266;DHT22;14766;51.380;13.762;2023-06-22T10:06:23;34.70;37.10
27266;DHT22;14766;51.380;13.762;2023-06-22T10:08:51;34.70;36.70
27266;DHT22;14766;51.380;13.762;2023-06-22T10:11:19;34.70;37.00
27266;DHT22;14766;51.380;13.762;2023-06-22T10:13:46;34.70;37.30
27266;DHT22;14766;51.380;13.762;2023-06-22T10:16:15;34.70;37.40
27266;DHT22;14766;51.380;13.762;2023-06-22T10:18:42;34.70;37.20
27266;DHT22;14766;51.380;13.762;2023-06-22T10:21:10;34.70;37.30
27266;DHT22;14766;51.380;13.762;2023-06-22T10:23:38;34.70;37.40
27266;DHT22;14766;51.380;13.762;2023-06-22T10:26:07;34.70;36.90
27266;DHT22;14766;51.380;13.762;2023-06-22T10:28:34;34.70;36.90
27266;DHT22;14766;51.380;13.762;2023-06-22T10:31:01;34.70;37.30
27266;DHT22;14766;51.380;13.762;2023-06-22T10:33:28;34.70;36.70
27266;DHT22;14766;51.380;13.762;2023-06-22T10:35:56;34.70;35.90
27266;DHT22;14766;51.380;13.762;2023-06-22T10:38:23;34.70;35.40
27266;DHT22;14766;51.380;13.762;2023-06-22T10:40:52;34.80;35.60
27266;DHT22;14766;51.380;13.762;2023-06-22T10:43:23;34.80;36.10
27266;DHT22;14766;51.380;13.762;2023-06-22T10:45:50;34.90;36.10
27266;DHT22;14766;51.380;13.762;2023-06-22T10:48:17;34.90;35.50
27266;DHT22;14766;51.380;13.762;2023-06-22T10:50:46;35.00;36.00
27266;DHT22;14766;51.380;13.762;2023-06-22T10:53:14;35.10;35.40
27266;DHT22;14766;51.380;13.762;2023-06-22T10:55:43;35.10;34.90
27266;DHT22;14766;51.380;13.762;2023-06-22T10:58:22;35.20;34.80
27266;DHT22;14766;51.380;13.762;2023-06-22T11:00:50;35.30;34.60
27266;DHT22;14766;51.380;13.762;2023-06-22T11:03:17;35.30;34.50
27266;DHT22;14766;51.380;13.762;2023-06-22T11:05:44;35.30;34.60
27266;DHT22;14766;51.380;13.762;2023-06-22T11:08:15;35.20;34.40
27266;DHT22;14766;51.380;13.762;2023-06-22T11:10:43;35.10;34.40
27266;DHT22;14766;51.380;13.762;2023-06-22T11:13:10;35.10;34.50
27266;DHT22;14766;51.380;13.762;2023-06-22T11:15:39;35.00;33.80
27266;DHT22;14766;51.380;13.762;2023-06-22T11:18:06;35.10;34.10
27266;DHT22;14766;51.380;13.762;2023-06-22T11:20:34;35.10;33.70
27266;DHT22;14766;51.380;13.762;2023-06-22T11:23:05;35.10;33.50
27266;DHT22;14766;51.380;13.762;2023-06-22T11:25:33;35.00;33.90
27266;DHT22;14766;51.380;13.762;2023-06-22T11:28:04;35.00;34.00
27266;DHT22;14766;51.380;13.762;2023-06-22T11:30:32;35.00;33.90
27266;DHT22;14766;51.380;13.762;2023-06-22T11:32:59;35.00;34.30
27266;DHT22;14766;51.380;13.762;2023-06-22T11:35:27;34.90;34.10
27266;DHT22;14766;51.380;13.762;2023-06-22T11:37:56;34.80;34.00
27266;DHT22;14766;51.380;13.762;2023-06-22T11:40:23;34.80;34.30
27266;DHT22;14766;51.380;13.762;2023-06-22T11:42:51;34.80;34.90
27266;DHT22;14766;51.380;13.762;2023-06-22T11:45:19;34.80;34.90
27266;DHT22;14766;51.380;13.762;2023-06-22T11:47:47;34.80;34.60
27266;DHT22;14766;51.380;13.762;2023-06-22T11:50:14;34.90;34.70
27266;DHT22;14766;51.380;13.762;2023-06-22T11:52:42;35.00;34.70
27266;DHT22;14766;51.380;13.762;2023-06-22T11:55:09;35.00;34.70
27266;DHT22;14766;51.380;13.762;2023-06-22T11:57:38;35.10;34.50
27266;DHT22;14766;51.380;13.762;2023-06-22T12:00:06;35.20;34.60
27266;DHT22;14766;51.380;13.762;2023-06-22T12:02:43;35.20;34.60
27266;DHT22;14766;51.380;13.762;2023-06-22T12:05:12;35.20;33.80
27266;DHT22;14766;51.380;13.762;2023-06-22T12:07:39;35.20;34.00
27266;DHT22;14766;51.380;13.762;2023-06-22T12:10:07;35.10;34.00
27266;DHT22;14766;51.380;13.762;2023-06-22T12:12:36;35.10;34.20
27266;DHT22;14766;51.380;13.762;2023-06-22T12:15:04;35.10;34.00
27266;DHT22;14766;51.380;13.762;2023-06-22T12:17:32;35.10;34.20
27266;DHT22;14766;51.380;13.762;2023-06-22T12:19:59;35.10;34.00
27266;DHT22;14766;51.380;13.762;2023-06-22T12:22:26;35.00;33.70
27266;DHT22;14766;51.380;13.762;2023-06-22T12:24:53;34.90;33.90
27266;DHT22;14766;51.380;13.762;2023-06-22T12:27:21;34.90;34.00
27266;DHT22;14766;51.380;13.762;2023-06-22T12:29:48;34.90;33.80
27266;DHT22;14766;51.380;13.762;2023-06-22T12:32:15;34.90;33.80
27266;DHT22;14766;51.380;13.762;2023-06-22T12:34:43;34.90;34.20
27266;DHT22;14766;51.380;13.762;2023-06-22T12:37:10;35.00;34.20
27266;DHT22;14766;51.380;13.762;2023-06-22T12:39:41;35.00;34.20
27266;DHT22;14766;51.380;13.762;2023-06-22T12:42:09;35.10;34.70
27266;DHT22;14766;51.380;13.762;2023-06-22T12:44:39;35.10;34.00
27266;DHT22;14766;51.380;13.762;2023-06-22T12:47:07;35.20;33.60
27266;DHT22;14766;51.380;13.762;2023-06-22T12:49:35;35.20;33.50
27266;DHT22;14766;51.380;13.762;2023-06-22T12:52:08;35.20;33.50
27266;DHT22;14766;51.380;13.762;2023-06-22T12:54:35;35.20;33.70
27266;DHT22;14766;51.380;13.762;2023-06-22T12:57:20;35.30;34.50
27266;DHT22;14766;51.380;13.762;2023-06-22T12:59:47;35.30;33.70
27266;DHT22;14766;51.380;13.762;2023-06-22T13:02:15;35.30;33.70
27266;DHT22;14766;51.380;13.762;2023-06-22T13:04:42;35.30;33.70
27266;DHT22;14766;51.380;13.762;2023-06-22T13:07:11;35.30;33.10
27266;DHT22;14766;51.380;13.762;2023-06-22T13:09:42;35.20;33.50
27266;DHT22;14766;51.380;13.762;2023-06-22T13:12:09;35.20;33.50
27266;DHT22;14766;51.380;13.762;2023-06-22T13:14:36;35.20;33.60
27266;DHT22;14766;51.380;13.762;2023-06-22T13:17:03;35.20;33.80
27266;DHT22;14766;51.380;13.762;2023-06-22T13:19:30;35.20;33.70
27266;DHT22;14766;51.380;13.762;2023-06-22T13:21:59;35.10;33.70
27266;DHT22;14766;51.380;13.762;2023-06-22T13:24:27;35.10;33.90
27266;DHT22;14766;51.380;13.762;2023-06-22T13:26:54;35.20;34.20
27266;DHT22;14766;51.380;13.762;2023-06-22T13:29:23;35.10;34.20
27266;DHT22;14766;51.380;13.762;2023-06-22T13:31:51;35.10;33.80
27266;DHT22;14766;51.380;13.762;2023-06-22T13:34:18;35.10;33.70
27266;DHT22;14766;51.380;13.762;2023-06-22T13:36:45;35.10;33.80
27266;DHT22;14766;51.380;13.762;2023-06-22T13:39:13;35.00;33.80
27266;DHT22;14766;51.380;13.762;2023-06-22T13:41:41;35.00;33.70
27266;DHT22;14766;51.380;13.762;2023-06-22T13:44:10;34.90;34.00
27266;DHT22;14766;51.380;13.762;2023-06-22T13:46:37;34.90;34.50
27266;DHT22;14766;51.380;13.762;2023-06-22T13:49:05;34.90;34.40
27266;DHT22;14766;51.380;13.762;2023-06-22T13:51:32;34.90;34.40
27266;DHT22;14766;51.380;13.762;2023-06-22T13:53:59;34.90;34.50
27266;DHT22;14766;51.380;13.762;2023-06-22T13:56:26;34.80;34.60
27266;DHT22;14766;51.380;13.762;2023-06-22T13:58:53;34.80;34.20
27266;DHT22;14766;51.380;13.762;2023-06-22T14:01:21;34.80;34.20
27266;DHT22;14766;51.380;13.762;2023-06-22T14:03:48;34.90;34.40
27266;DHT22;14766;51.380;13.762;2023-06-22T14:06:15;34.80;34.10
27266;DHT22;14766;51.380;13.762;2023-06-22T14:08:42;34.90;34.30
27266;DHT22;14766;51.380;13.762;2023-06-22T14:11:11;34.80;34.30
27266;DHT22;14766;51.380;13.762;2023-06-22T14:13:38;34.90;34.30
27266;DHT22;14766;51.380;13.762;2023-06-22T14:16:05;34.80;34.40
27266;DHT22;14766;51.380;13.762;2023-06-22T14:18:32;34.80;34.40
27266;DHT22;14766;51.380;13.762;2023-06-22T14:21:00;34.80;34.30
27266;DHT22;14766;51.380;13.762;2023-06-22T14:23:27;34.80;34.10
27266;DHT22;14766;51.380;13.762;2023-06-22T14:25:55;34.80;34.40
27266;DHT22;14766;51.380;13.762;2023-06-22T14:28:23;34.90;34.70
27266;DHT22;14766;51.380;13.762;2023-06-22T14:30:51;34.90;34.70
27266;DHT22;14766;51.380;13.762;2023-06-22T14:33:18;34.90;34.80
27266;DHT22;14766;51.380;13.762;2023-06-22T14:35:45;35.00;34.50
27266;DHT22;14766;51.380;13.762;2023-06-22T14:38:12;35.00;34.10
27266;DHT22;14766;51.380;13.762;2023-06-22T14:40:39;35.00;33.80
27266;DHT22;14766;51.380;13.762;2023-06-22T14:43:25;35.10;33.90
27266;DHT22;14766;51.380;13.762;2023-06-22T14:45:53;35.00;33.70
27266;DHT22;14766;51.380;13.762;2023-06-22T14:48:20;35.00;33.80
27266;DHT22;14766;51.380;13.762;2023-06-22T14:50:47;35.00;33.80
27266;DHT22;14766;51.380;13.762;2023-06-22T14:53:14;35.00;34.00
27266;DHT22;14766;51.380;13.762;2023-06-22T14:55:41;35.00;34.00
27266;DHT22;14766;51.380;13.762;2023-06-22T14:58:10;34.90;33.80
27266;DHT22;14766;51.380;13.762;2023-06-22T15:00:39;34.90;33.50
27266;DHT22;14766;51.380;13.762;2023-06-22T15:03:06;34.90;33.50
27266;DHT22;14766;51.380;13.762;2023-06-22T15:05:38;34.90;33.80
27266;DHT22;14766;51.380;13.762;2023-06-22T15:08:05;34.80;34.70
27266;DHT22;14766;51.380;13.762;2023-06-22T15:10:32;34.80;34.00
27266;DHT22;14766;51.380;13.762;2023-06-22T15:12:59;34.70;34.10
27266;DHT22;14766;51.380;13.762;2023-06-22T15:15:27;34.80;34.40
27266;DHT22;14766;51.380;13.762;2023-06-22T15:17:54;34.80;34.30
27266;DHT22;14766;51.380;13.762;2023-06-22T15:20:22;34.80;34.40
27266;DHT22;14766;51.380;13.762;2023-06-22T15:22:50;34.70;34.40
27266;DHT22;14766;51.380;13.762;2023-06-22T15:25:17;34.70;34.30
27266;DHT22;14766;51.380;13.762;2023-06-22T15:27:44;34.70;34.20
27266;DHT22;14766;51.380;13.762;2023-06-22T15:30:12;34.70;34.40
27266;DHT22;14766;51.380;13.762;2023-06-22T15:32:44;34.60;34.40
27266;DHT22;14766;51.380;13.762;2023-06-22T15:35:12;34.60;34.20